Accueil
METAR-TAF:

METAR-TAF

Aéroports :

Odiham, Angleterre

latitude: 51-14N, longitude: 000-57W, altitude: 123 m

Observation

Le bulletin a été fait il y a 1 heure et 0 minutes, à 19:50 UTC
Vent 6 kt de est/sud-est
Température 2°C
Humidité 87%
Pression 1017 hPa
Visibilité 10 km ou plus
Quelques nuages à une hauteur de 3800 ft

METAR: EGVO 211950Z 11006KT 9999 FEW038 02/M00 Q1017 BLU BECMG 7000 HZ WHT

Heure: 20:50 (20:50 UTC)

Prévision

Le bulletin a été fait il y a 1 heure et 12 minutes, à 19:38 UTC
Prévision valable du 21 à 21 UTC au 22 à 09 UTC
Vent 7 kt de est
Visibilité 10 km ou plus
Quelques nuages à une hauteur de 3800 ft
Evoluant progressivement
du 21 à 21 UTC au 21 à 23 UTC
Visibilité: 6000 m
brume sèche
Probabilité 40%
du 21 à 23 UTC au 22 à 07 UTC
Visibilité: 3000 m
brume

TAF: EGVO 211938Z 2121/2209 10007KT 9999 FEW038 BECMG 2121/2123 6000 HZ PROB40 2123/2207 3000 BR

Observations et prévisions météorologiques de plus de 4000 aéroports (messages METAR et TAF).

Les stations disponibles sont représentées par des disques jaunes et rouges sur la carte.

Passer la souris dessus pour voir le nom de la station.

Cliquer dessus pour voir les observations et prévisions météorologiques.

Pour changer de carte: cliquez sur les boutons verts avec une croix noire pour zoomer, sur le bouton vert avec un tiret pour effectuer un zoom arrière, ou sur les flèches vertes pour les cartes adjacentes.


METAR-TAF: